sensor_id;sensor_type;location;lat;lon;timestamp;pressure;altitude;pressure_sealevel;temperature
77599;BMP280;66758;52.078;5.070;2023-07-13T00:00:25;101533.41;;;17.52
77599;BMP280;66758;52.078;5.070;2023-07-13T00:02:50;101542.00;;;17.33
77599;BMP280;66758;52.078;5.070;2023-07-13T00:05:19;101532.13;;;17.35
77599;BMP280;66758;52.078;5.070;2023-07-13T00:07:45;101524.66;;;17.43
77599;BMP280;66758;52.078;5.070;2023-07-13T00:10:11;101520.72;;;17.44
77599;BMP280;66758;52.078;5.070;2023-07-13T00:12:37;101527.03;;;17.44
77599;BMP280;66758;52.078;5.070;2023-07-13T00:15:18;101525.50;;;17.50
77599;BMP280;66758;52.078;5.070;2023-07-13T00:17:48;101530.47;;;17.27
77599;BMP280;66758;52.078;5.070;2023-07-13T00:20:14;101520.63;;;17.30
77599;BMP280;66758;52.078;5.070;2023-07-13T00:22:39;101528.84;;;17.23
77599;BMP280;66758;52.078;5.070;2023-07-13T00:25:05;101526.06;;;17.19
77599;BMP280;66758;52.078;5.070;2023-07-13T00:27:30;101533.28;;;17.31
77599;BMP280;66758;52.078;5.070;2023-07-13T00:29:57;101521.84;;;17.36
77599;BMP280;66758;52.078;5.070;2023-07-13T00:32:23;101536.44;;;17.33
77599;BMP280;66758;52.078;5.070;2023-07-13T00:34:51;101534.09;;;17.31
77599;BMP280;66758;52.078;5.070;2023-07-13T00:37:16;101532.31;;;17.09
77599;BMP280;66758;52.078;5.070;2023-07-13T00:39:42;101522.41;;;17.08
77599;BMP280;66758;52.078;5.070;2023-07-13T00:42:07;101515.66;;;17.02
77599;BMP280;66758;52.078;5.070;2023-07-13T00:44:32;101520.34;;;16.98
77599;BMP280;66758;52.078;5.070;2023-07-13T00:46:58;101518.69;;;16.90
77599;BMP280;66758;52.078;5.070;2023-07-13T00:49:25;101524.94;;;16.80
77599;BMP280;66758;52.078;5.070;2023-07-13T00:52:04;101524.94;;;16.80
77599;BMP280;66758;52.078;5.070;2023-07-13T00:54:34;101526.09;;;16.79
77599;BMP280;66758;52.078;5.070;2023-07-13T00:57:04;101528.06;;;16.78
77599;BMP280;66758;52.078;5.070;2023-07-13T00:59:31;101541.53;;;16.80
77599;BMP280;66758;52.078;5.070;2023-07-13T01:01:57;101531.63;;;16.79
77599;BMP280;66758;52.078;5.070;2023-07-13T01:04:25;101541.53;;;16.76
77599;BMP280;66758;52.078;5.070;2023-07-13T01:06:51;101530.03;;;16.78
77599;BMP280;66758;52.078;5.070;2023-07-13T01:09:17;101537.84;;;16.65
77599;BMP280;66758;52.078;5.070;2023-07-13T01:11:43;101530.25;;;16.58
77599;BMP280;66758;52.078;5.070;2023-07-13T01:14:10;101538.56;;;16.58
77599;BMP280;66758;52.078;5.070;2023-07-13T01:16:37;101533.91;;;16.66
77599;BMP280;66758;52.078;5.070;2023-07-13T01:19:19;101533.50;;;16.67
77599;BMP280;66758;52.078;5.070;2023-07-13T01:21:50;101533.50;;;16.67
77599;BMP280;66758;52.078;5.070;2023-07-13T01:24:16;101529.47;;;16.61
77599;BMP280;66758;52.078;5.070;2023-07-13T01:26:42;101535.81;;;16.62
77599;BMP280;66758;52.078;5.070;2023-07-13T01:29:07;101542.88;;;16.56
77599;BMP280;66758;52.078;5.070;2023-07-13T01:31:33;101549.25;;;16.60
77599;BMP280;66758;52.078;5.070;2023-07-13T01:33:58;101550.78;;;16.57
77599;BMP280;66758;52.078;5.070;2023-07-13T01:36:24;101548.34;;;16.52
77599;BMP280;66758;52.078;5.070;2023-07-13T01:38:50;101547.63;;;16.55
77599;BMP280;66758;52.078;5.070;2023-07-13T01:41:16;101545.00;;;16.36
77599;BMP280;66758;52.078;5.070;2023-07-13T01:43:41;101557.22;;;16.35
77599;BMP280;66758;52.078;5.070;2023-07-13T01:46:06;101550.06;;;16.31
77599;BMP280;66758;52.078;5.070;2023-07-13T01:48:32;101550.47;;;16.29
77599;BMP280;66758;52.078;5.070;2023-07-13T01:50:57;101552.94;;;16.38
77599;BMP280;66758;52.078;5.070;2023-07-13T01:53:23;101556.69;;;16.22
77599;BMP280;66758;52.078;5.070;2023-07-13T01:55:49;101549.28;;;16.30
77599;BMP280;66758;52.078;5.070;2023-07-13T01:58:14;101557.50;;;16.23
77599;BMP280;66758;52.078;5.070;2023-07-13T02:00:39;101564.03;;;16.08
77599;BMP280;66758;52.078;5.070;2023-07-13T02:03:05;101558.97;;;16.13
77599;BMP280;66758;52.078;5.070;2023-07-13T02:05:30;101552.31;;;16.18
77599;BMP280;66758;52.078;5.070;2023-07-13T02:07:56;101555.81;;;16.15
77599;BMP280;66758;52.078;5.070;2023-07-13T02:10:21;101557.22;;;16.02
77599;BMP280;66758;52.078;5.070;2023-07-13T02:12:48;101553.31;;;16.06
77599;BMP280;66758;52.078;5.070;2023-07-13T02:15:14;101554.06;;;16.03
77599;BMP280;66758;52.078;5.070;2023-07-13T02:17:39;101565.84;;;15.97
77599;BMP280;66758;52.078;5.070;2023-07-13T02:20:06;101569.78;;;15.96
77599;BMP280;66758;52.078;5.070;2023-07-13T02:22:33;101562.63;;;15.95
77599;BMP280;66758;52.078;5.070;2023-07-13T02:24:58;101559.44;;;15.93
77599;BMP280;66758;52.078;5.070;2023-07-13T02:27:24;101558.69;;;15.92
77599;BMP280;66758;52.078;5.070;2023-07-13T02:29:50;101558.97;;;15.87
77599;BMP280;66758;52.078;5.070;2023-07-13T02:32:17;101564.47;;;15.83
77599;BMP280;66758;52.078;5.070;2023-07-13T02:34:42;101567.50;;;15.75
77599;BMP280;66758;52.078;5.070;2023-07-13T02:37:08;101558.59;;;15.89
77599;BMP280;66758;52.078;5.070;2023-07-13T02:39:34;101561.06;;;15.67
77599;BMP280;66758;52.078;5.070;2023-07-13T02:41:59;101565.41;;;15.68
77599;BMP280;66758;52.078;5.070;2023-07-13T02:44:25;101566.25;;;15.72
77599;BMP280;66758;52.078;5.070;2023-07-13T02:46:51;101565.06;;;15.70
77599;BMP280;66758;52.078;5.070;2023-07-13T02:49:16;101563.81;;;15.67
77599;BMP280;66758;52.078;5.070;2023-07-13T02:51:42;101572.00;;;15.60
77599;BMP280;66758;52.078;5.070;2023-07-13T02:54:08;101568.41;;;15.56
77599;BMP280;66758;52.078;5.070;2023-07-13T02:56:34;101559.41;;;15.63
77599;BMP280;66758;52.078;5.070;2023-07-13T02:58:59;101563.69;;;15.60
77599;BMP280;66758;52.078;5.070;2023-07-13T03:01:24;101561.34;;;15.59
77599;BMP280;66758;52.078;5.070;2023-07-13T03:03:51;101555.75;;;15.55
77599;BMP280;66758;52.078;5.070;2023-07-13T03:06:17;101562.13;;;15.59
77599;BMP280;66758;52.078;5.070;2023-07-13T03:08:44;101569.66;;;15.62
77599;BMP280;66758;52.078;5.070;2023-07-13T03:11:12;101576.47;;;15.68
77599;BMP280;66758;52.078;5.070;2023-07-13T03:13:40;101577.09;;;15.58
77599;BMP280;66758;52.078;5.070;2023-07-13T03:16:06;101573.81;;;15.49
77599;BMP280;66758;52.078;5.070;2023-07-13T03:18:31;101567.56;;;15.52
77599;BMP280;66758;52.078;5.070;2023-07-13T03:20:57;101562.88;;;15.56
77599;BMP280;66758;52.078;5.070;2023-07-13T03:23:23;101562.09;;;15.56
77599;BMP280;66758;52.078;5.070;2023-07-13T03:25:50;101552.91;;;15.48
77599;BMP280;66758;52.078;5.070;2023-07-13T03:28:16;101565.59;;;15.53
77599;BMP280;66758;52.078;5.070;2023-07-13T03:30:42;101573.41;;;15.47
77599;BMP280;66758;52.078;5.070;2023-07-13T03:33:08;101573.81;;;15.49
77599;BMP280;66758;52.078;5.070;2023-07-13T03:35:34;101577.69;;;15.45
77599;BMP280;66758;52.078;5.070;2023-07-13T03:38:00;101574.03;;;15.37
77599;BMP280;66758;52.078;5.070;2023-07-13T03:40:27;101579.28;;;15.46
77599;BMP280;66758;52.078;5.070;2023-07-13T03:42:53;101578.38;;;15.38
77599;BMP280;66758;52.078;5.070;2023-07-13T03:45:19;101583.22;;;15.45
77599;BMP280;66758;52.078;5.070;2023-07-13T03:47:45;101587.09;;;15.40
77599;BMP280;66758;52.078;5.070;2023-07-13T03:50:10;101584.47;;;15.47
77599;BMP280;66758;52.078;5.070;2023-07-13T03:52:36;101587.88;;;15.40
77599;BMP280;66758;52.078;5.070;2023-07-13T03:55:02;101584.31;;;15.40
77599;BMP280;66758;52.078;5.070;2023-07-13T03:57:27;101590.16;;;15.35
77599;BMP280;66758;52.078;5.070;2023-07-13T03:59:53;101592.59;;;15.40
77599;BMP280;66758;52.078;5.070;2023-07-13T04:02:18;101595.06;;;15.45
77599;BMP280;66758;52.078;5.070;2023-07-13T04:04:44;101599.59;;;15.34
77599;BMP280;66758;52.078;5.070;2023-07-13T04:07:09;101607.66;;;15.43
77599;BMP280;66758;52.078;5.070;2023-07-13T04:09:35;101615.56;;;15.44
77599;BMP280;66758;52.078;5.070;2023-07-13T04:12:01;101596.53;;;15.39
77599;BMP280;66758;52.078;5.070;2023-07-13T04:14:27;101592.75;;;15.47
77599;BMP280;66758;52.078;5.070;2023-07-13T04:16:52;101603.53;;;15.56
77599;BMP280;66758;52.078;5.070;2023-07-13T04:19:20;101608.63;;;15.54
77599;BMP280;66758;52.078;5.070;2023-07-13T04:21:45;101607.19;;;15.63
77599;BMP280;66758;52.078;5.070;2023-07-13T04:24:11;101602.72;;;15.55
77599;BMP280;66758;52.078;5.070;2023-07-13T04:26:36;101604.72;;;15.58
77599;BMP280;66758;52.078;5.070;2023-07-13T04:29:03;101608.47;;;15.69
77599;BMP280;66758;52.078;5.070;2023-07-13T04:31:30;101608.06;;;15.71
77599;BMP280;66758;52.078;5.070;2023-07-13T04:33:55;101612.78;;;15.70
77599;BMP280;66758;52.078;5.070;2023-07-13T04:36:21;101620.78;;;15.75
77599;BMP280;66758;52.078;5.070;2023-07-13T04:38:46;101614.50;;;15.78
77599;BMP280;66758;52.078;5.070;2023-07-13T04:41:13;101610.59;;;15.79
77599;BMP280;66758;52.078;5.070;2023-07-13T04:43:39;101618.84;;;15.76
77599;BMP280;66758;52.078;5.070;2023-07-13T04:46:07;101618.88;;;15.79
77599;BMP280;66758;52.078;5.070;2023-07-13T04:48:33;101623.25;;;15.80
77599;BMP280;66758;52.078;5.070;2023-07-13T04:50:59;101611.13;;;15.89
77599;BMP280;66758;52.078;5.070;2023-07-13T04:53:25;101624.13;;;15.88
77599;BMP280;66758;52.078;5.070;2023-07-13T04:55:51;101625.00;;;15.92
77599;BMP280;66758;52.078;5.070;2023-07-13T04:58:18;101624.41;;;16.06
77599;BMP280;66758;52.078;5.070;2023-07-13T05:00:46;101625.56;;;16.05
77599;BMP280;66758;52.078;5.070;2023-07-13T05:03:12;101624.78;;;16.04
77599;BMP280;66758;52.078;5.070;2023-07-13T05:05:37;101619.69;;;16.06
77599;BMP280;66758;52.078;5.070;2023-07-13T05:08:03;101616.63;;;16.15
77599;BMP280;66758;52.078;5.070;2023-07-13T05:10:28;101627.44;;;16.23
77599;BMP280;66758;52.078;5.070;2023-07-13T05:12:54;101631.00;;;16.24
77599;BMP280;66758;52.078;5.070;2023-07-13T05:15:23;101642.09;;;16.27
77599;BMP280;66758;52.078;5.070;2023-07-13T05:17:50;101642.25;;;16.38
77599;BMP280;66758;52.078;5.070;2023-07-13T05:20:16;101639.88;;;16.40
77599;BMP280;66758;52.078;5.070;2023-07-13T05:22:43;101640.31;;;16.42
77599;BMP280;66758;52.078;5.070;2023-07-13T05:25:09;101643.13;;;16.46
77599;BMP280;66758;52.078;5.070;2023-07-13T05:27:35;101643.69;;;16.58
77599;BMP280;66758;52.078;5.070;2023-07-13T05:30:01;101641.81;;;16.66
77599;BMP280;66758;52.078;5.070;2023-07-13T05:32:27;101637.91;;;16.71
77599;BMP280;66758;52.078;5.070;2023-07-13T05:34:52;101644.69;;;16.77
77599;BMP280;66758;52.078;5.070;2023-07-13T05:37:18;101650.28;;;16.80
77599;BMP280;66758;52.078;5.070;2023-07-13T05:39:43;101648.84;;;16.93
77599;BMP280;66758;52.078;5.070;2023-07-13T05:42:09;101649.19;;;16.88
77599;BMP280;66758;52.078;5.070;2023-07-13T05:44:34;101647.69;;;16.98
77599;BMP280;66758;52.078;5.070;2023-07-13T05:46:59;101659.34;;;17.14
77599;BMP280;66758;52.078;5.070;2023-07-13T05:49:25;101658.56;;;17.17
77599;BMP280;66758;52.078;5.070;2023-07-13T05:51:51;101662.19;;;17.21
77599;BMP280;66758;52.078;5.070;2023-07-13T05:54:16;101659.03;;;17.23
77599;BMP280;66758;52.078;5.070;2023-07-13T05:56:42;101666.25;;;17.31
77599;BMP280;66758;52.078;5.070;2023-07-13T05:59:07;101674.22;;;17.36
77599;BMP280;66758;52.078;5.070;2023-07-13T06:01:33;101675.13;;;17.50
77599;BMP280;66758;52.078;5.070;2023-07-13T06:03:58;101670.44;;;17.58
77599;BMP280;66758;52.078;5.070;2023-07-13T06:06:24;101676.53;;;17.78
77599;BMP280;66758;52.078;5.070;2023-07-13T06:08:49;101682.94;;;17.85
77599;BMP280;66758;52.078;5.070;2023-07-13T06:11:20;101689.84;;;18.09
77599;BMP280;66758;52.078;5.070;2023-07-13T06:13:46;101690.69;;;18.20
77599;BMP280;66758;52.078;5.070;2023-07-13T06:16:12;101676.44;;;18.22
77599;BMP280;66758;52.078;5.070;2023-07-13T06:18:39;101685.22;;;18.31
77599;BMP280;66758;52.078;5.070;2023-07-13T06:21:14;101690.47;;;18.54
77599;BMP280;66758;52.078;5.070;2023-07-13T06:23:40;101703.47;;;18.39
77599;BMP280;66758;52.078;5.070;2023-07-13T06:26:06;101699.97;;;18.49
77599;BMP280;66758;52.078;5.070;2023-07-13T06:28:32;101691.59;;;18.38
77599;BMP280;66758;52.078;5.070;2023-07-13T06:30:59;101706.75;;;18.59
77599;BMP280;66758;52.078;5.070;2023-07-13T06:33:25;101696.09;;;18.71
77599;BMP280;66758;52.078;5.070;2023-07-13T06:35:50;101699.34;;;18.98
77599;BMP280;66758;52.078;5.070;2023-07-13T06:38:16;101699.66;;;18.65
77599;BMP280;66758;52.078;5.070;2023-07-13T06:40:41;101711.22;;;18.84
77599;BMP280;66758;52.078;5.070;2023-07-13T06:43:07;101705.66;;;18.81
77599;BMP280;66758;52.078;5.070;2023-07-13T06:45:40;101704.41;;;18.68
77599;BMP280;66758;52.078;5.070;2023-07-13T06:48:06;101712.59;;;18.39
77599;BMP280;66758;52.078;5.070;2023-07-13T06:50:33;101724.41;;;18.22
77599;BMP280;66758;52.078;5.070;2023-07-13T06:52:59;101729.44;;;18.10
77599;BMP280;66758;52.078;5.070;2023-07-13T06:55:25;101736.16;;;18.05
77599;BMP280;66758;52.078;5.070;2023-07-13T06:57:51;101729.34;;;17.95
77599;BMP280;66758;52.078;5.070;2023-07-13T07:00:16;101731.03;;;17.60
77599;BMP280;66758;52.078;5.070;2023-07-13T07:02:41;101736.25;;;17.68
77599;BMP280;66758;52.078;5.070;2023-07-13T07:05:07;101731.59;;;17.35
77599;BMP280;66758;52.078;5.070;2023-07-13T07:07:33;101726.44;;;17.37
77599;BMP280;66758;52.078;5.070;2023-07-13T07:09:58;101725.41;;;17.52
77599;BMP280;66758;52.078;5.070;2023-07-13T07:12:25;101737.03;;;17.65
77599;BMP280;66758;52.078;5.070;2023-07-13T07:14:50;101726.66;;;17.59
77599;BMP280;66758;52.078;5.070;2023-07-13T07:17:16;101740.19;;;17.67
77599;BMP280;66758;52.078;5.070;2023-07-13T07:19:41;101734.72;;;17.71
77599;BMP280;66758;52.078;5.070;2023-07-13T07:22:07;101732.34;;;17.73
77599;BMP280;66758;52.078;5.070;2023-07-13T07:24:32;101729.03;;;17.57
77599;BMP280;66758;52.078;5.070;2023-07-13T07:26:58;101732.22;;;17.59
77599;BMP280;66758;52.078;5.070;2023-07-13T07:29:23;101720.31;;;17.58
77599;BMP280;66758;52.078;5.070;2023-07-13T07:31:51;101736.44;;;17.89
77599;BMP280;66758;52.078;5.070;2023-07-13T07:34:17;101729.16;;;18.22
77599;BMP280;66758;52.078;5.070;2023-07-13T07:36:43;101736.41;;;18.44
77599;BMP280;66758;52.078;5.070;2023-07-13T07:39:08;101730.03;;;18.36
77599;BMP280;66758;52.078;5.070;2023-07-13T07:41:34;101743.56;;;18.45
77599;BMP280;66758;52.078;5.070;2023-07-13T07:43:59;101739.81;;;18.16
77599;BMP280;66758;52.078;5.070;2023-07-13T07:46:25;101738.44;;;17.92
77599;BMP280;66758;52.078;5.070;2023-07-13T07:48:50;101737.25;;;17.90
77599;BMP280;66758;52.078;5.070;2023-07-13T07:51:16;101742.09;;;18.04
77599;BMP280;66758;52.078;5.070;2023-07-13T07:53:41;101738.72;;;18.31
77599;BMP280;66758;52.078;5.070;2023-07-13T07:56:07;101749.69;;;18.79
77599;BMP280;66758;52.078;5.070;2023-07-13T07:58:32;101739.06;;;19.06
77599;BMP280;66758;52.078;5.070;2023-07-13T08:01:05;101739.53;;;19.29
77599;BMP280;66758;52.078;5.070;2023-07-13T08:03:31;101739.81;;;18.88
77599;BMP280;66758;52.078;5.070;2023-07-13T08:05:58;101730.31;;;18.93
77599;BMP280;66758;52.078;5.070;2023-07-13T08:08:25;101739.88;;;19.13
77599;BMP280;66758;52.078;5.070;2023-07-13T08:10:50;101747.78;;;19.08
77599;BMP280;66758;52.078;5.070;2023-07-13T08:13:16;101747.41;;;19.09
77599;BMP280;66758;52.078;5.070;2023-07-13T08:15:41;101756.44;;;18.85
77599;BMP280;66758;52.078;5.070;2023-07-13T08:18:07;101751.72;;;18.93
77599;BMP280;66758;52.078;5.070;2023-07-13T08:20:38;101750.88;;;18.74
77599;BMP280;66758;52.078;5.070;2023-07-13T08:23:05;101768.56;;;18.49
77599;BMP280;66758;52.078;5.070;2023-07-13T08:25:30;101776.00;;;17.83
77599;BMP280;66758;52.078;5.070;2023-07-13T08:27:56;101756.25;;;17.47
77599;BMP280;66758;52.078;5.070;2023-07-13T08:30:21;101760.84;;;17.70
77599;BMP280;66758;52.078;5.070;2023-07-13T08:32:47;101749.72;;;17.66
77599;BMP280;66758;52.078;5.070;2023-07-13T08:35:12;101763.38;;;17.89
77599;BMP280;66758;52.078;5.070;2023-07-13T08:37:39;101764.16;;;17.86
77599;BMP280;66758;52.078;5.070;2023-07-13T08:40:05;101761.22;;;18.19
77599;BMP280;66758;52.078;5.070;2023-07-13T08:42:40;101766.94;;;18.40
77599;BMP280;66758;52.078;5.070;2023-07-13T08:45:20;101761.84;;;18.53
77599;BMP280;66758;52.078;5.070;2023-07-13T08:47:56;101764.63;;;18.57
77599;BMP280;66758;52.078;5.070;2023-07-13T08:50:25;101756.66;;;18.48
77599;BMP280;66758;52.078;5.070;2023-07-13T08:52:56;101754.81;;;18.77
77599;BMP280;66758;52.078;5.070;2023-07-13T08:55:27;101751.41;;;19.19
77599;BMP280;66758;52.078;5.070;2023-07-13T08:58:01;101743.50;;;20.09
77599;BMP280;66758;52.078;5.070;2023-07-13T09:00:52;101737.41;;;20.57
77599;BMP280;66758;52.078;5.070;2023-07-13T09:03:23;101750.00;;;20.79
77599;BMP280;66758;52.078;5.070;2023-07-13T09:05:57;101756.31;;;20.90
77599;BMP280;66758;52.078;5.070;2023-07-13T09:16:17;101750.31;;;21.98
77599;BMP280;66758;52.078;5.070;2023-07-13T09:18:51;101752.09;;;22.15
77599;BMP280;66758;52.078;5.070;2023-07-13T09:21:23;101764.25;;;21.54
77599;BMP280;66758;52.078;5.070;2023-07-13T09:23:53;101770.66;;;20.85
77599;BMP280;66758;52.078;5.070;2023-07-13T09:26:22;101805.53;;;18.63
77599;BMP280;66758;52.078;5.070;2023-07-13T09:28:52;101783.13;;;17.84
77599;BMP280;66758;52.078;5.070;2023-07-13T09:31:33;101782.88;;;17.55
77599;BMP280;66758;52.078;5.070;2023-07-13T09:34:00;101786.13;;;17.65
77599;BMP280;66758;52.078;5.070;2023-07-13T09:36:29;101788.53;;;17.66
77599;BMP280;66758;52.078;5.070;2023-07-13T09:39:18;101785.34;;;17.68
77599;BMP280;66758;52.078;5.070;2023-07-13T09:41:47;101791.50;;;17.91
77599;BMP280;66758;52.078;5.070;2023-07-13T09:44:30;101782.66;;;18.22
77599;BMP280;66758;52.078;5.070;2023-07-13T09:46:57;101789.84;;;18.30
77599;BMP280;66758;52.078;5.070;2023-07-13T09:49:29;101787.69;;;18.61
77599;BMP280;66758;52.078;5.070;2023-07-13T09:52:10;101781.66;;;19.91
77599;BMP280;66758;52.078;5.070;2023-07-13T09:54:36;101780.03;;;20.29
77599;BMP280;66758;52.078;5.070;2023-07-13T09:57:12;101789.28;;;21.02
77599;BMP280;66758;52.078;5.070;2023-07-13T09:59:45;101800.41;;;21.09
77599;BMP280;66758;52.078;5.070;2023-07-13T10:02:34;101796.09;;;21.56
77599;BMP280;66758;52.078;5.070;2023-07-13T10:05:06;101803.88;;;21.28
77599;BMP280;66758;52.078;5.070;2023-07-13T10:07:38;101795.03;;;20.63
77599;BMP280;66758;52.078;5.070;2023-07-13T10:10:15;101807.88;;;19.79
77599;BMP280;66758;52.078;5.070;2023-07-13T10:12:47;101819.22;;;19.07
77599;BMP280;66758;52.078;5.070;2023-07-13T10:15:21;101817.16;;;18.90
77599;BMP280;66758;52.078;5.070;2023-07-13T10:17:48;101804.91;;;18.95
77599;BMP280;66758;52.078;5.070;2023-07-13T10:20:15;101814.66;;;19.89
77599;BMP280;66758;52.078;5.070;2023-07-13T10:22:51;101815.75;;;20.55
77599;BMP280;66758;52.078;5.070;2023-07-13T10:25:23;101811.63;;;20.92
77599;BMP280;66758;52.078;5.070;2023-07-13T10:27:55;101822.31;;;21.00
77599;BMP280;66758;52.078;5.070;2023-07-13T10:30:35;101824.00;;;21.53
77599;BMP280;66758;52.078;5.070;2023-07-13T10:33:10;101830.81;;;22.00
77599;BMP280;66758;52.078;5.070;2023-07-13T10:35:37;101822.00;;;22.05
77599;BMP280;66758;52.078;5.070;2023-07-13T10:38:11;101822.53;;;22.98
77599;BMP280;66758;52.078;5.070;2023-07-13T10:40:39;101833.38;;;23.23
77599;BMP280;66758;52.078;5.070;2023-07-13T10:43:18;101825.28;;;22.71
77599;BMP280;66758;52.078;5.070;2023-07-13T10:45:46;101835.41;;;22.21
77599;BMP280;66758;52.078;5.070;2023-07-13T10:48:15;101838.94;;;22.62
77599;BMP280;66758;52.078;5.070;2023-07-13T10:50:44;101840.00;;;23.05
77599;BMP280;66758;52.078;5.070;2023-07-13T10:53:20;101832.75;;;23.38
77599;BMP280;66758;52.078;5.070;2023-07-13T10:55:58;101819.50;;;23.89
77599;BMP280;66758;52.078;5.070;2023-07-13T11:03:34;101834.38;;;22.04
77599;BMP280;66758;52.078;5.070;2023-07-13T11:08:37;101829.31;;;21.40
77599;BMP280;66758;52.078;5.070;2023-07-13T11:18:51;101849.59;;;19.87
77599;BMP280;66758;52.078;5.070;2023-07-13T11:21:23;101838.09;;;20.20
77599;BMP280;66758;52.078;5.070;2023-07-13T11:24:15;101839.66;;;20.42
77599;BMP280;66758;52.078;5.070;2023-07-13T11:32:01;101843.00;;;21.10
77599;BMP280;66758;52.078;5.070;2023-07-13T11:34:43;101854.84;;;21.32
77599;BMP280;66758;52.078;5.070;2023-07-13T11:37:15;101854.34;;;21.47
77599;BMP280;66758;52.078;5.070;2023-07-13T11:39:47;101846.81;;;21.92
77599;BMP280;66758;52.078;5.070;2023-07-13T11:42:16;101848.03;;;23.30
77599;BMP280;66758;52.078;5.070;2023-07-13T11:44:46;101836.59;;;24.57
77599;BMP280;66758;52.078;5.070;2023-07-13T11:47:18;101837.94;;;26.14
77599;BMP280;66758;52.078;5.070;2023-07-13T11:49:50;101839.78;;;24.16
77599;BMP280;66758;52.078;5.070;2023-07-13T11:52:20;101847.25;;;24.23
77599;BMP280;66758;52.078;5.070;2023-07-13T11:54:55;101838.19;;;25.30
77599;BMP280;66758;52.078;5.070;2023-07-13T11:57:30;101837.66;;;24.24
77599;BMP280;66758;52.078;5.070;2023-07-13T12:00:15;101862.41;;;23.32
77599;BMP280;66758;52.078;5.070;2023-07-13T12:02:50;101857.19;;;24.27
77599;BMP280;66758;52.078;5.070;2023-07-13T12:05:20;101842.00;;;25.84
77599;BMP280;66758;52.078;5.070;2023-07-13T12:07:47;101842.16;;;27.01
77599;BMP280;66758;52.078;5.070;2023-07-13T12:10:23;101849.69;;;26.92
77599;BMP280;66758;52.078;5.070;2023-07-13T12:12:53;101852.53;;;26.38
77599;BMP280;66758;52.078;5.070;2023-07-13T12:15:19;101849.13;;;26.72
77599;BMP280;66758;52.078;5.070;2023-07-13T12:17:47;101854.03;;;26.55
77599;BMP280;66758;52.078;5.070;2023-07-13T12:20:26;101847.09;;;25.89
77599;BMP280;66758;52.078;5.070;2023-07-13T12:22:52;101847.09;;;26.31
77599;BMP280;66758;52.078;5.070;2023-07-13T12:25:19;101856.69;;;27.00
77599;BMP280;66758;52.078;5.070;2023-07-13T12:27:49;101855.00;;;26.07
77599;BMP280;66758;52.078;5.070;2023-07-13T12:30:31;101867.53;;;26.60
77599;BMP280;66758;52.078;5.070;2023-07-13T12:33:08;101850.63;;;26.35
77599;BMP280;66758;52.078;5.070;2023-07-13T12:35:48;101854.09;;;26.80
77599;BMP280;66758;52.078;5.070;2023-07-13T12:38:15;101864.66;;;26.35
77599;BMP280;66758;52.078;5.070;2023-07-13T12:40:41;101868.44;;;26.57
77599;BMP280;66758;52.078;5.070;2023-07-13T12:43:15;101859.50;;;26.87
77599;BMP280;66758;52.078;5.070;2023-07-13T12:46:01;101848.88;;;26.66
77599;BMP280;66758;52.078;5.070;2023-07-13T12:48:27;101855.19;;;26.70
77599;BMP280;66758;52.078;5.070;2023-07-13T12:50:54;101856.38;;;26.56
77599;BMP280;66758;52.078;5.070;2023-07-13T12:53:29;101859.66;;;25.97
77599;BMP280;66758;52.078;5.070;2023-07-13T12:55:59;101855.31;;;27.17
77599;BMP280;66758;52.078;5.070;2023-07-13T12:58:57;101852.47;;;29.03
77599;BMP280;66758;52.078;5.070;2023-07-13T13:01:27;101857.00;;;28.08
77599;BMP280;66758;52.078;5.070;2023-07-13T13:03:53;101855.97;;;27.81
77599;BMP280;66758;52.078;5.070;2023-07-13T13:06:23;101863.69;;;28.85
77599;BMP280;66758;52.078;5.070;2023-07-13T13:08:51;101861.34;;;27.66
77599;BMP280;66758;52.078;5.070;2023-07-13T13:11:18;101861.34;;;28.53
77599;BMP280;66758;52.078;5.070;2023-07-13T13:13:45;101857.34;;;28.63
77599;BMP280;66758;52.078;5.070;2023-07-13T13:16:48;101863.88;;;26.88
77599;BMP280;66758;52.078;5.070;2023-07-13T13:19:19;101869.56;;;25.73
77599;BMP280;66758;52.078;5.070;2023-07-13T13:21:47;101871.50;;;24.92
77599;BMP280;66758;52.078;5.070;2023-07-13T13:24:15;101882.03;;;25.40
77599;BMP280;66758;52.078;5.070;2023-07-13T13:26:41;101877.06;;;26.50
77599;BMP280;66758;52.078;5.070;2023-07-13T13:29:14;101882.53;;;25.51
77599;BMP280;66758;52.078;5.070;2023-07-13T13:31:46;101874.16;;;24.99
77599;BMP280;66758;52.078;5.070;2023-07-13T13:34:17;101878.06;;;24.46
77599;BMP280;66758;52.078;5.070;2023-07-13T13:36:44;101885.41;;;23.93
77599;BMP280;66758;52.078;5.070;2023-07-13T13:39:22;101883.63;;;23.56
77599;BMP280;66758;52.078;5.070;2023-07-13T13:41:49;101878.88;;;23.77
77599;BMP280;66758;52.078;5.070;2023-07-13T13:44:16;101886.31;;;24.10
77599;BMP280;66758;52.078;5.070;2023-07-13T13:46:46;101881.22;;;25.88
77599;BMP280;66758;52.078;5.070;2023-07-13T13:49:18;101892.41;;;23.82
77599;BMP280;66758;52.078;5.070;2023-07-13T13:51:44;101894.06;;;24.02
77599;BMP280;66758;52.078;5.070;2023-07-13T13:54:15;101884.19;;;24.60
77599;BMP280;66758;52.078;5.070;2023-07-13T13:56:46;101887.41;;;23.70
77599;BMP280;66758;52.078;5.070;2023-07-13T13:59:12;101888.75;;;23.04
77599;BMP280;66758;52.078;5.070;2023-07-13T14:01:38;101887.25;;;22.22
77599;BMP280;66758;52.078;5.070;2023-07-13T14:04:05;101884.66;;;22.79
77599;BMP280;66758;52.078;5.070;2023-07-13T14:06:32;101889.19;;;23.30
77599;BMP280;66758;52.078;5.070;2023-07-13T14:09:00;101882.09;;;23.22
77599;BMP280;66758;52.078;5.070;2023-07-13T14:11:25;101888.25;;;21.97
77599;BMP280;66758;52.078;5.070;2023-07-13T14:13:54;101891.31;;;22.88
77599;BMP280;66758;52.078;5.070;2023-07-13T14:16:21;101892.00;;;22.25
77599;BMP280;66758;52.078;5.070;2023-07-13T14:18:48;101883.28;;;22.94
77599;BMP280;66758;52.078;5.070;2023-07-13T14:21:20;101885.88;;;21.99
77599;BMP280;66758;52.078;5.070;2023-07-13T14:23:47;101890.41;;;21.79
77599;BMP280;66758;52.078;5.070;2023-07-13T14:26:15;101893.59;;;23.00
77599;BMP280;66758;52.078;5.070;2023-07-13T14:28:44;101877.47;;;24.54
77599;BMP280;66758;52.078;5.070;2023-07-13T14:31:14;101889.53;;;24.32